createdAt,value
2022-10-23T00:01:22.958Z,4.50
2022-10-23T00:03:53.541Z,4.40
2022-10-23T00:06:22.103Z,4.00
2022-10-23T00:08:50.918Z,4.60
2022-10-23T00:11:20.997Z,4.75
2022-10-23T00:13:51.867Z,4.15
2022-10-23T00:16:20.079Z,4.50
2022-10-23T00:18:48.312Z,3.97
2022-10-23T00:21:18.381Z,4.20
2022-10-23T00:23:47.178Z,4.30
2022-10-23T00:26:16.146Z,4.30
2022-10-23T00:28:45.043Z,4.70
2022-10-23T00:31:15.098Z,4.97
2022-10-23T00:33:44.165Z,5.60
2022-10-23T00:36:16.087Z,5.15
2022-10-23T00:38:45.919Z,5.88
2022-10-23T00:41:17.202Z,4.90
2022-10-23T00:44:07.167Z,5.10
2022-10-23T00:46:38.305Z,4.97
2022-10-23T00:49:07.244Z,4.53
2022-10-23T00:51:40.215Z,5.47
2022-10-23T00:54:25.432Z,4.90
2022-10-23T00:56:57.380Z,4.88
2022-10-23T00:59:25.906Z,5.10
2022-10-23T01:01:55.746Z,5.20
2022-10-23T01:04:24.987Z,5.35
2022-10-23T01:07:00.684Z,5.50
2022-10-23T01:09:33.620Z,5.30
2022-10-23T01:12:13.622Z,5.13
2022-10-23T01:14:48.542Z,5.20
2022-10-23T01:17:24.958Z,5.10
2022-10-23T01:20:07.784Z,5.20
2022-10-23T01:22:54.468Z,5.03
2022-10-23T01:25:31.351Z,4.50
2022-10-23T01:28:04.191Z,4.05
2022-10-23T01:30:34.678Z,3.88
2022-10-23T01:33:07.882Z,4.50
2022-10-23T01:35:49.778Z,4.40
2022-10-23T01:38:21.841Z,3.60
2022-10-23T01:40:55.895Z,3.50
2022-10-23T01:43:28.908Z,3.60
2022-10-23T01:46:00.565Z,3.45
2022-10-23T01:48:30.816Z,3.80
2022-10-23T01:51:04.457Z,3.75
2022-10-23T01:53:38.478Z,3.80
2022-10-23T01:56:11.094Z,3.60
2022-10-23T01:58:43.812Z,3.42
2022-10-23T02:01:13.514Z,3.67
2022-10-23T02:03:51.143Z,3.30
2022-10-23T02:06:20.066Z,3.75
2022-10-23T02:08:48.487Z,3.47
2022-10-23T02:11:18.549Z,3.20
2022-10-23T02:13:56.768Z,3.60
2022-10-23T02:16:32.287Z,4.00
2022-10-23T02:19:09.784Z,3.70
2022-10-23T02:21:46.095Z,3.25
2022-10-23T02:24:17.032Z,3.70
2022-10-23T02:26:52.377Z,3.15
2022-10-23T02:29:29.583Z,3.30
2022-10-23T02:32:00.176Z,3.10
2022-10-23T02:34:28.847Z,3.40
2022-10-23T02:36:57.517Z,3.10
2022-10-23T02:39:28.878Z,3.88
2022-10-23T02:42:06.513Z,3.35
2022-10-23T02:44:47.751Z,3.30
2022-10-23T02:47:31.409Z,3.55
2022-10-23T02:50:06.819Z,3.30
2022-10-23T02:52:43.283Z,3.27
2022-10-23T02:55:24.592Z,3.10
2022-10-23T02:57:58.187Z,3.40
2022-10-23T03:00:31.019Z,3.37
2022-10-23T03:03:02.300Z,3.10
2022-10-23T03:05:35.659Z,3.40
2022-10-23T03:08:04.767Z,3.25
2022-10-23T03:10:33.066Z,3.47
2022-10-23T03:13:01.265Z,3.53
2022-10-23T03:15:35.608Z,3.10
2022-10-23T03:18:03.996Z,3.20
2022-10-23T03:20:32.475Z,3.30
2022-10-23T03:23:01.489Z,3.17
2022-10-23T03:25:29.734Z,2.80
2022-10-23T03:28:00.284Z,3.35
2022-10-23T03:30:28.574Z,2.85
2022-10-23T03:32:58.162Z,3.38
2022-10-23T03:35:26.418Z,3.47
2022-10-23T03:37:54.623Z,3.15
2022-10-23T03:40:26.367Z,3.13
2022-10-23T03:42:54.633Z,3.17
2022-10-23T03:45:23.902Z,3.00
2022-10-23T03:47:52.720Z,3.10
2022-10-23T03:50:22.404Z,3.00
2022-10-23T03:52:50.641Z,3.10
2022-10-23T03:55:19.455Z,3.15
2022-10-23T03:57:47.663Z,2.97
2022-10-23T04:00:16.543Z,3.30
2022-10-23T04:02:44.945Z,3.03
2022-10-23T04:05:14.389Z,3.33
2022-10-23T04:07:53.306Z,2.90
2022-10-23T04:10:21.644Z,3.45
2022-10-23T04:12:49.870Z,3.30
2022-10-23T04:15:19.893Z,3.10
2022-10-23T04:17:48.122Z,3.35
2022-10-23T04:20:16.609Z,3.70
2022-10-23T04:22:45.321Z,3.90
2022-10-23T04:25:16.575Z,3.88
2022-10-23T04:27:45.162Z,3.80
2022-10-23T04:30:14.339Z,3.42
2022-10-23T04:32:42.812Z,4.00
2022-10-23T04:35:10.998Z,3.70
2022-10-23T04:37:39.378Z,4.03
2022-10-23T04:40:09.695Z,3.30
2022-10-23T04:42:40.995Z,3.50
2022-10-23T04:45:10.102Z,3.20
2022-10-23T04:47:39.891Z,3.33
2022-10-23T04:50:09.150Z,3.22
2022-10-23T04:52:56.060Z,3.60
2022-10-23T04:55:39.563Z,4.22
2022-10-23T04:58:20.006Z,3.60
2022-10-23T05:00:49.361Z,3.80
2022-10-23T05:03:24.620Z,4.25
2022-10-23T05:05:55.189Z,3.90
2022-10-23T05:08:49.713Z,4.38
2022-10-23T05:11:38.173Z,4.05
2022-10-23T05:14:11.080Z,4.60
2022-10-23T05:16:44.398Z,3.88
2022-10-23T05:19:22.009Z,4.40
2022-10-23T05:21:55.991Z,4.50
2022-10-23T05:24:28.423Z,4.40
2022-10-23T05:27:01.091Z,3.40
2022-10-23T05:29:33.620Z,3.67
2022-10-23T05:32:06.308Z,3.53
2022-10-23T05:34:38.273Z,3.63
2022-10-23T05:37:09.086Z,4.00
2022-10-23T05:39:39.690Z,4.20
2022-10-23T05:42:13.069Z,4.25
2022-10-23T05:44:44.023Z,4.07
2022-10-23T05:47:31.637Z,4.63
2022-10-23T05:50:20.306Z,4.40
2022-10-23T05:52:55.626Z,4.05
2022-10-23T05:55:33.057Z,3.88
2022-10-23T05:58:19.854Z,4.10
2022-10-23T06:01:12.453Z,3.40
2022-10-23T06:04:05.176Z,3.60
2022-10-23T06:06:53.592Z,3.57
2022-10-23T06:09:22.384Z,3.50
2022-10-23T06:11:55.389Z,3.50
2022-10-23T06:14:24.671Z,3.90
2022-10-23T06:16:55.012Z,3.35
2022-10-23T06:19:25.177Z,3.72
2022-10-23T06:21:56.365Z,3.80
2022-10-23T06:24:35.358Z,3.50
2022-10-23T06:27:06.319Z,3.80
2022-10-23T06:29:43.465Z,3.90
2022-10-23T06:32:13.219Z,3.88
2022-10-23T06:34:45.883Z,3.83
2022-10-23T06:37:14.256Z,3.90
2022-10-23T06:39:46.553Z,3.70
2022-10-23T06:42:17.936Z,3.70
2022-10-23T06:44:59.645Z,3.50
2022-10-23T06:47:51.402Z,3.50
2022-10-23T06:50:38.404Z,3.72
2022-10-23T06:53:12.921Z,3.13
2022-10-23T06:55:50.048Z,5.00
2022-10-23T06:58:21.246Z,3.40
2022-10-23T07:01:14.832Z,3.50
2022-10-23T07:03:45.942Z,3.35
2022-10-23T07:06:14.554Z,3.80
2022-10-23T07:08:43.225Z,3.67
2022-10-23T07:11:31.349Z,4.30
2022-10-23T07:14:00.120Z,3.10
2022-10-23T07:16:28.605Z,3.53
2022-10-23T07:19:01.277Z,3.50
2022-10-23T07:21:31.111Z,3.60
2022-10-23T07:24:16.019Z,3.25
2022-10-23T07:26:45.343Z,3.40
2022-10-23T07:29:14.817Z,3.30
2022-10-23T07:31:44.248Z,3.30
2022-10-23T07:34:36.815Z,3.80
2022-10-23T07:37:19.245Z,3.10
2022-10-23T07:39:47.463Z,3.63
2022-10-23T07:42:15.743Z,3.40
2022-10-23T07:44:44.251Z,3.33
2022-10-23T07:47:12.446Z,3.35
2022-10-23T07:49:45.845Z,3.60
2022-10-23T07:52:14.317Z,3.40
2022-10-23T07:55:05.941Z,3.50
2022-10-23T07:57:36.217Z,3.33
2022-10-23T08:00:31.584Z,3.60
2022-10-23T08:03:13.481Z,3.33
2022-10-23T08:05:43.876Z,3.50
2022-10-23T08:08:12.046Z,3.70
2022-10-23T08:10:43.662Z,3.60
2022-10-23T08:13:16.206Z,3.35
2022-10-23T08:15:55.922Z,3.30
2022-10-23T08:18:45.343Z,3.80
2022-10-23T08:21:15.152Z,3.53
2022-10-23T08:23:43.534Z,3.17
2022-10-23T08:26:12.518Z,3.70
2022-10-23T08:28:40.858Z,3.70
2022-10-23T08:31:10.658Z,3.20
2022-10-23T08:33:41.299Z,3.47
2022-10-23T08:36:19.594Z,3.47
2022-10-23T08:38:48.233Z,3.80
2022-10-23T08:41:26.520Z,4.10
2022-10-23T08:44:10.316Z,2.97
2022-10-23T08:46:45.994Z,3.10
2022-10-23T08:49:41.322Z,3.20
2022-10-23T08:52:18.470Z,3.10
2022-10-23T08:54:57.763Z,3.05
2022-10-23T08:57:33.311Z,3.08
2022-10-23T09:00:05.674Z,3.08
2022-10-23T09:02:40.220Z,3.90
2022-10-23T09:05:16.001Z,3.90
2022-10-23T09:07:59.445Z,3.50
2022-10-23T09:10:42.535Z,3.60
2022-10-23T09:13:29.258Z,2.97
2022-10-23T09:16:07.468Z,2.75
2022-10-23T09:18:35.699Z,2.27
2022-10-23T09:21:09.780Z,2.75
2022-10-23T09:23:39.741Z,2.50
2022-10-23T09:26:15.264Z,2.97
2022-10-23T09:28:48.724Z,3.00
2022-10-23T09:31:17.811Z,2.65
2022-10-23T09:33:56.177Z,2.90
2022-10-23T09:36:26.028Z,3.00
2022-10-23T09:38:58.829Z,4.60
2022-10-23T09:41:30.865Z,3.50
2022-10-23T09:44:04.152Z,4.80
2022-10-23T09:46:39.764Z,3.40
2022-10-23T09:49:16.041Z,2.90
2022-10-23T09:51:53.572Z,2.83
2022-10-23T09:54:25.011Z,2.55
2022-10-23T09:56:55.261Z,2.30
2022-10-23T09:59:27.745Z,2.83
2022-10-23T10:01:58.456Z,2.50
2022-10-23T10:04:45.321Z,2.40
2022-10-23T10:07:20.736Z,2.33
2022-10-23T10:09:50.900Z,2.67
2022-10-23T10:12:43.367Z,2.58
2022-10-23T10:15:21.133Z,2.70
2022-10-23T10:17:58.110Z,2.50
2022-10-23T10:20:56.035Z,3.10
2022-10-23T10:23:32.197Z,2.50
2022-10-23T10:26:14.969Z,2.88
2022-10-23T10:28:54.721Z,2.90
2022-10-23T10:31:32.169Z,2.15
2022-10-23T10:34:11.523Z,2.50
2022-10-23T10:36:50.645Z,2.40
2022-10-23T10:39:32.748Z,2.90
2022-10-23T10:42:22.825Z,2.47
2022-10-23T10:45:17.356Z,3.08
2022-10-23T10:47:55.721Z,2.30
2022-10-23T10:50:32.846Z,2.22
2022-10-23T10:53:23.575Z,2.30
2022-10-23T10:55:54.912Z,2.60
2022-10-23T10:58:32.333Z,3.30
2022-10-23T11:01:03.257Z,2.63
2022-10-23T11:03:40.324Z,2.30
2022-10-23T11:06:17.171Z,2.13
2022-10-23T11:08:57.368Z,2.00
2022-10-23T11:11:37.088Z,2.27
2022-10-23T11:14:06.832Z,1.80
2022-10-23T11:16:37.828Z,2.30
2022-10-23T11:19:14.111Z,1.80
2022-10-23T11:21:47.123Z,1.98
2022-10-23T11:24:55.806Z,1.60
2022-10-23T11:27:49.849Z,2.00
2022-10-23T11:30:25.100Z,1.70
2022-10-23T11:33:29.741Z,2.13
2022-10-23T11:36:07.710Z,1.63
2022-10-23T11:38:39.011Z,1.50
2022-10-23T11:41:21.008Z,2.10
2022-10-23T11:43:57.041Z,2.00
2022-10-23T11:46:37.288Z,1.73
2022-10-23T11:49:20.220Z,1.30
2022-10-23T11:51:48.361Z,1.60
2022-10-23T11:54:27.316Z,1.50
2022-10-23T11:57:11.557Z,1.30
2022-10-23T11:59:52.208Z,1.20
2022-10-23T12:02:32.109Z,1.70
2022-10-23T12:05:05.597Z,1.50
2022-10-23T12:07:37.016Z,1.40
2022-10-23T12:10:08.338Z,1.20
2022-10-23T12:12:40.918Z,1.40
2022-10-23T12:15:22.215Z,1.42
2022-10-23T12:17:54.198Z,1.48
2022-10-23T12:20:39.248Z,1.20
2022-10-23T12:23:37.027Z,1.20
2022-10-23T12:26:40.567Z,1.20
2022-10-23T12:29:21.363Z,2.30
2022-10-23T12:31:56.036Z,1.20
2022-10-23T12:34:39.668Z,1.30
2022-10-23T12:37:31.516Z,1.20
2022-10-23T12:40:01.945Z,2.00
2022-10-23T12:42:31.187Z,1.75
2022-10-23T12:45:00.919Z,1.35
2022-10-23T12:47:30.495Z,1.30
2022-10-23T12:50:00.103Z,1.10
2022-10-23T12:52:28.336Z,1.50
2022-10-23T12:54:56.573Z,1.00
2022-10-23T12:57:28.124Z,1.33
2022-10-23T12:59:59.230Z,1.25
2022-10-23T13:02:29.302Z,0.90
2022-10-23T13:05:01.929Z,0.80
2022-10-23T13:07:32.953Z,1.00
2022-10-23T13:10:05.188Z,0.90
2022-10-23T13:12:39.711Z,1.30
2022-10-23T13:15:18.810Z,1.60
2022-10-23T13:17:48.446Z,2.40
2022-10-23T13:20:26.374Z,1.40
2022-10-23T13:23:00.949Z,1.57
2022-10-23T13:25:32.054Z,1.50
2022-10-23T13:28:14.591Z,1.30
2022-10-23T13:30:46.265Z,1.40
2022-10-23T13:33:24.347Z,1.35
2022-10-23T13:36:01.308Z,1.30
2022-10-23T13:38:31.116Z,1.42
2022-10-23T13:41:00.776Z,1.63
2022-10-23T13:43:30.765Z,1.80
2022-10-23T13:45:59.737Z,1.55
2022-10-23T13:48:28.227Z,1.55
2022-10-23T13:51:07.444Z,1.55
2022-10-23T13:53:35.713Z,2.13
2022-10-23T13:56:04.528Z,1.50
2022-10-23T13:58:32.745Z,1.60
2022-10-23T14:01:01.057Z,1.50
2022-10-23T14:03:29.282Z,1.73
2022-10-23T14:05:57.427Z,2.00
2022-10-23T14:08:27.053Z,1.70
2022-10-23T14:10:55.178Z,1.70
2022-10-23T14:13:23.367Z,1.80
2022-10-23T14:15:55.013Z,1.85
2022-10-23T14:18:23.559Z,1.75
2022-10-23T14:20:52.046Z,2.20
2022-10-23T14:23:20.216Z,1.30
2022-10-23T14:25:49.769Z,1.63
2022-10-23T14:28:17.970Z,1.90
2022-10-23T14:30:46.141Z,1.55
2022-10-23T14:33:15.022Z,1.60
2022-10-23T14:35:43.381Z,1.75
2022-10-23T14:38:11.598Z,1.40
2022-10-23T14:40:40.901Z,1.73
2022-10-23T14:43:10.468Z,1.50
2022-10-23T14:45:38.658Z,1.70
2022-10-23T14:48:07.221Z,1.70
2022-10-23T14:50:36.949Z,2.10
2022-10-23T14:53:05.596Z,2.40
2022-10-23T14:55:33.849Z,2.15
2022-10-23T14:58:01.953Z,2.10
2022-10-23T15:00:31.730Z,1.92
2022-10-23T15:02:59.954Z,1.92
2022-10-23T15:05:28.182Z,3.10
2022-10-23T15:07:56.974Z,3.80
2022-10-23T15:10:25.169Z,3.65
2022-10-23T15:12:53.326Z,4.82
2022-10-23T15:15:22.429Z,5.95
2022-10-23T15:17:51.996Z,5.72
2022-10-23T15:20:20.127Z,5.60
2022-10-23T15:22:48.292Z,5.22
2022-10-23T15:25:18.097Z,5.28
2022-10-23T15:27:46.604Z,4.72
2022-10-23T15:30:15.296Z,4.88
2022-10-23T15:32:44.495Z,4.33
2022-10-23T15:35:14.010Z,3.30
2022-10-23T15:37:42.479Z,3.53
2022-10-23T15:40:11.674Z,3.70
2022-10-23T15:42:40.061Z,3.30
2022-10-23T15:45:09.299Z,2.70
2022-10-23T15:47:37.591Z,2.00
2022-10-23T15:50:06.512Z,1.73
2022-10-23T15:52:36.080Z,1.80
2022-10-23T15:55:04.906Z,1.80
2022-10-23T15:57:33.218Z,2.40
2022-10-23T16:00:02.441Z,2.50
2022-10-23T16:02:30.667Z,3.10
2022-10-23T16:04:59.060Z,3.08
2022-10-23T16:07:27.211Z,5.35
2022-10-23T16:09:57.183Z,2.50
2022-10-23T16:12:25.667Z,2.50
2022-10-23T16:14:53.936Z,2.10
2022-10-23T16:17:22.164Z,2.63
2022-10-23T16:19:50.370Z,2.70
2022-10-23T16:22:18.590Z,2.33
2022-10-23T16:24:46.729Z,2.30
2022-10-23T16:27:16.264Z,2.78
2022-10-23T16:29:45.004Z,3.20
2022-10-23T16:32:13.230Z,3.08
2022-10-23T16:34:41.867Z,6.30
2022-10-23T16:37:10.184Z,6.40
2022-10-23T16:39:51.945Z,5.45
2022-10-23T16:42:41.837Z,4.30
2022-10-23T16:45:16.658Z,3.70
2022-10-23T16:47:44.943Z,3.58
2022-10-23T16:50:13.298Z,6.13
2022-10-23T16:52:41.916Z,5.15
2022-10-23T16:55:11.045Z,4.40
2022-10-23T16:57:40.773Z,5.10
2022-10-23T17:00:09.751Z,4.20
2022-10-23T17:02:38.482Z,3.60
2022-10-23T17:05:07.459Z,3.07
2022-10-23T17:07:37.336Z,3.22
2022-10-23T17:10:06.276Z,3.40
2022-10-23T17:12:34.445Z,3.10
2022-10-23T17:15:04.493Z,2.50
2022-10-23T17:17:32.791Z,2.60
2022-10-23T17:20:01.038Z,2.40
2022-10-23T17:22:29.216Z,2.97
2022-10-23T17:24:57.479Z,3.28
2022-10-23T17:27:25.819Z,3.10
2022-10-23T17:29:54.353Z,2.70
2022-10-23T17:32:24.115Z,2.70
2022-10-23T17:34:52.366Z,2.72
2022-10-23T17:37:20.495Z,3.00
2022-10-23T17:39:48.660Z,2.80
2022-10-23T17:42:16.852Z,3.10
2022-10-23T17:44:45.143Z,2.90
2022-10-23T17:47:13.468Z,4.00
2022-10-23T17:49:45.516Z,3.30
2022-10-23T17:52:15.152Z,4.18
2022-10-23T17:54:43.737Z,3.33
2022-10-23T17:57:11.912Z,3.35
2022-10-23T17:59:40.171Z,2.90
2022-10-23T18:02:08.633Z,2.90
2022-10-23T18:04:36.903Z,2.90
2022-10-23T18:07:06.529Z,2.50
2022-10-23T18:09:34.890Z,3.17
2022-10-23T18:12:03.160Z,2.63
2022-10-23T18:14:34.333Z,2.85
2022-10-23T18:17:04.996Z,2.45
2022-10-23T18:19:33.166Z,2.60
2022-10-23T18:22:01.371Z,2.40
2022-10-23T18:24:31.034Z,2.95
2022-10-23T18:26:59.462Z,2.72
2022-10-23T18:29:27.593Z,2.50
2022-10-23T18:31:55.714Z,2.20
2022-10-23T18:34:26.018Z,2.10
2022-10-23T18:36:55.561Z,1.90
2022-10-23T18:39:26.338Z,8.87
2022-10-23T18:41:58.471Z,9.70
2022-10-23T18:44:29.292Z,7.93
2022-10-23T18:46:57.799Z,5.25
2022-10-23T18:49:26.521Z,9.73
2022-10-23T18:51:54.642Z,7.40
2022-10-23T18:54:23.617Z,3.30
2022-10-23T18:56:51.997Z,2.65
2022-10-23T18:59:22.747Z,3.17
2022-10-23T19:01:51.504Z,5.03
2022-10-23T19:04:20.426Z,3.90
2022-10-23T19:06:50.380Z,2.60
2022-10-23T19:09:18.703Z,6.60
2022-10-23T19:11:47.215Z,4.40
2022-10-23T19:14:16.399Z,5.20
2022-10-23T19:16:55.834Z,7.05
2022-10-23T19:19:28.083Z,2.50
2022-10-23T19:21:57.037Z,5.50
2022-10-23T19:24:29.530Z,2.55
2022-10-23T19:26:58.435Z,3.92
2022-10-23T19:29:27.562Z,4.40
2022-10-23T19:31:57.453Z,2.63
2022-10-23T19:34:25.970Z,4.57
2022-10-23T19:36:55.569Z,3.53
2022-10-23T19:39:25.811Z,4.15
2022-10-23T19:41:54.358Z,5.00
2022-10-23T19:44:22.809Z,4.90
2022-10-23T19:46:51.048Z,4.20
2022-10-23T19:49:20.646Z,4.30
2022-10-23T19:51:51.208Z,3.95
2022-10-23T19:54:20.476Z,3.70
2022-10-23T19:56:49.148Z,2.80
2022-10-23T19:59:17.620Z,3.03
2022-10-23T20:01:48.177Z,3.90
2022-10-23T20:04:18.194Z,2.40
2022-10-23T20:06:48.390Z,2.50
2022-10-23T20:09:17.069Z,2.10
2022-10-23T20:11:45.485Z,2.47
2022-10-23T20:14:14.762Z,2.30
2022-10-23T20:16:46.015Z,2.20
2022-10-23T20:21:50.949Z,2.00
2022-10-23T20:24:20.555Z,2.40
2022-10-23T20:26:53.286Z,1.90
2022-10-23T20:29:22.256Z,2.00
2022-10-23T20:31:50.482Z,1.50
2022-10-23T20:34:20.097Z,2.00
2022-10-23T20:36:51.395Z,1.80
2022-10-23T20:39:21.933Z,1.58
2022-10-23T20:41:50.184Z,1.55
2022-10-23T20:44:19.512Z,1.90
2022-10-23T20:46:47.820Z,1.40
2022-10-23T20:49:16.958Z,1.33
2022-10-23T20:51:45.488Z,1.30
2022-10-23T20:54:15.064Z,1.30
2022-10-23T20:56:43.456Z,1.40
2022-10-23T20:59:13.438Z,1.30
2022-10-23T21:01:43.343Z,1.40
2022-10-23T21:04:13.284Z,1.20
2022-10-23T21:06:57.789Z,1.33
2022-10-23T21:09:32.435Z,1.45
2022-10-23T21:12:00.859Z,1.60
2022-10-23T21:14:29.560Z,1.98
2022-10-23T21:16:57.804Z,1.43
2022-10-23T21:19:25.960Z,1.50
2022-10-23T21:21:55.133Z,1.92
2022-10-23T21:24:24.140Z,1.70
2022-10-23T21:26:53.878Z,1.60
2022-10-23T21:29:22.062Z,2.00
2022-10-23T21:31:54.416Z,1.60
2022-10-23T21:34:23.266Z,1.55
2022-10-23T21:39:39.821Z,1.70
2022-10-23T21:42:09.667Z,1.95
2022-10-23T21:44:38.313Z,1.40
2022-10-23T21:47:06.712Z,2.00
2022-10-23T21:49:34.966Z,2.25
2022-10-23T21:52:03.273Z,1.52
2022-10-23T21:54:31.504Z,1.80
2022-10-23T21:57:00.047Z,1.35
2022-10-23T21:59:30.409Z,1.83
2022-10-23T22:02:18.219Z,1.70
2022-10-23T22:04:47.855Z,1.50
2022-10-23T22:07:16.111Z,2.22
2022-10-23T22:09:44.684Z,2.10
2022-10-23T22:12:13.534Z,1.70
2022-10-23T22:14:43.467Z,1.50
2022-10-23T22:17:11.663Z,1.80
2022-10-23T22:19:39.856Z,1.60
2022-10-23T22:22:08.198Z,1.90
2022-10-23T22:24:37.280Z,2.20
2022-10-23T22:27:05.472Z,1.88
2022-10-23T22:29:33.639Z,1.95
2022-10-23T22:32:03.256Z,2.10
2022-10-23T22:34:52.010Z,2.45
2022-10-23T22:37:20.153Z,2.00
2022-10-23T22:39:51.520Z,2.35
2022-10-23T22:42:19.737Z,2.40
2022-10-23T22:44:47.876Z,2.20
2022-10-23T22:47:17.347Z,2.17
2022-10-23T22:49:45.671Z,2.43
2022-10-23T22:52:13.823Z,2.30
2022-10-23T22:54:42.042Z,1.90
2022-10-23T22:57:10.182Z,2.20
2022-10-23T22:59:38.307Z,2.40
2022-10-23T23:02:06.754Z,2.00
2022-10-23T23:04:38.666Z,2.00
2022-10-23T23:07:08.596Z,2.22
2022-10-23T23:09:38.475Z,2.25
2022-10-23T23:12:06.922Z,2.90
2022-10-23T23:14:35.201Z,2.10
2022-10-23T23:17:03.610Z,2.35
2022-10-23T23:19:31.826Z,2.40
2022-10-23T23:22:01.682Z,2.08
2022-10-23T23:24:30.293Z,2.00
2022-10-23T23:26:58.458Z,2.50
2022-10-23T23:29:26.922Z,2.15
2022-10-23T23:31:55.121Z,2.00
2022-10-23T23:34:23.397Z,2.37
2022-10-23T23:36:51.588Z,2.10
2022-10-23T23:39:21.142Z,2.30
2022-10-23T23:41:49.393Z,2.57
2022-10-23T23:44:17.621Z,2.55
2022-10-23T23:46:45.852Z,2.30
2022-10-23T23:49:14.084Z,2.20
2022-10-23T23:51:42.254Z,2.20
2022-10-23T23:54:10.420Z,2.30
2022-10-23T23:56:40.218Z,2.23
2022-10-23T23:59:08.386Z,2.28
